Main page
METAR-TAF:

METAR-TAF

Airports :

Carcassonne Airport

Carcassonne, France

latitude: 43-13N, longitude: 002-19E, elevation: 130 m

Current weather observation

The report was made 11 minutes ago, at 21:00 UTC
Wind 7 kt from the West
Temperature 1°C
Humidity 80%
Pressure 1032 hPa
Visibility 10 km or more
no clouds below 1500 m and no cumulonimbus

METAR: LFMK 212100Z AUTO 27007KT CAVOK 01/M02 Q1032

Time: 22:11 (21:11 UTC)

Forecast

The report was made 7 hours and 11 minutes ago, at 14:00 UTC
Forecast valid from 21 at 15 UTC to 22 at 15 UTC
Wind 12 kt from the West
Visibility 10 km or more
no clouds below 1500 m and no cumulonimbus
Temporary
from 21 at 15 UTC to 21 at 17 UTC
Wind 15 kt from the West with gusts up to 25 kt
Broken clouds at a height of 4000 ft
Temporary
from 22 at 07 UTC to 22 at 15 UTC
Wind 16 kt from the West with gusts up to 26 kt

TAF: LFMK 211400Z 2115/2215 27012KT CAVOK TEMPO 2115/2117 28015G25KT BKN040 TEMPO 2207/2215 26016G26KT

Weather observations and forecasts of more than 4000 airports (METAR and TAF reports).

The available stations are represented by yellow and red dots on the map.

Hover mouse over dot to see the name of the station.

Then click to see weather observations and forecasts.

To change the map : click on the green buttons with a black cross to zoom in, on the green button with a dash to zoom out, or on the green arrows for adjacent maps.


METAR-TAF: